createdAt,value
2019-02-19T00:03:07.830Z,71.83
2019-02-19T00:05:18.671Z,71.54
2019-02-19T00:07:29.525Z,72.32
2019-02-19T00:09:40.317Z,72.54
2019-02-19T00:11:51.132Z,72.34
2019-02-19T00:14:01.943Z,72.44
2019-02-19T00:16:12.779Z,72.11
2019-02-19T00:18:23.582Z,72.07
2019-02-19T00:20:34.428Z,72.05
2019-02-19T00:22:45.247Z,72.06
2019-02-19T00:24:56.057Z,71.77
2019-02-19T00:27:06.879Z,71.46
2019-02-19T00:29:17.669Z,71.44
2019-02-19T00:31:28.485Z,71.28
2019-02-19T00:33:39.288Z,71.55
2019-02-19T00:35:50.093Z,72.00
2019-02-19T00:38:00.913Z,71.92
2019-02-19T00:40:11.717Z,72.04
2019-02-19T00:42:22.526Z,72.07
2019-02-19T00:44:33.337Z,72.26
2019-02-19T00:46:44.146Z,71.95
2019-02-19T00:48:54.945Z,71.61
2019-02-19T00:51:05.843Z,71.49
2019-02-19T00:53:16.653Z,71.89
2019-02-19T00:55:27.472Z,72.57
2019-02-19T00:57:38.290Z,72.60
2019-02-19T00:59:49.107Z,72.29
2019-02-19T01:01:59.917Z,72.28
2019-02-19T01:04:10.743Z,72.21
2019-02-19T01:06:21.552Z,71.94
2019-02-19T01:08:32.370Z,72.25
2019-02-19T01:10:43.158Z,72.76
2019-02-19T01:12:54.005Z,72.79
2019-02-19T01:15:26.566Z,72.75
2019-02-19T01:17:37.399Z,72.62
2019-02-19T01:19:48.209Z,72.54
2019-02-19T01:21:58.998Z,72.27
2019-02-19T01:24:09.835Z,72.08
2019-02-19T01:26:20.621Z,71.96
2019-02-19T01:28:31.430Z,71.97
2019-02-19T01:30:42.229Z,71.80
2019-02-19T01:32:53.027Z,71.80
2019-02-19T01:35:45.489Z,71.78
2019-02-19T01:37:56.291Z,71.93
2019-02-19T01:40:48.760Z,71.85
2019-02-19T01:42:59.548Z,71.59
2019-02-19T01:45:10.366Z,71.75
2019-02-19T01:47:41.053Z,71.31
2019-02-19T01:49:51.869Z,71.31
2019-02-19T01:52:02.654Z,71.33
2019-02-19T01:54:13.471Z,71.67
2019-02-19T01:56:24.269Z,71.79
2019-02-19T01:58:35.093Z,71.93
2019-02-19T02:00:45.901Z,72.37
2019-02-19T02:02:56.794Z,72.41
2019-02-19T02:05:07.699Z,73.36
2019-02-19T02:07:18.499Z,73.29
2019-02-19T02:09:29.318Z,73.77
2019-02-19T02:11:40.146Z,73.58
2019-02-19T02:13:50.958Z,73.68
2019-02-19T02:16:01.866Z,73.81
2019-02-19T02:18:12.657Z,73.79
2019-02-19T02:20:23.497Z,73.75
2019-02-19T02:22:34.421Z,73.77
2019-02-19T02:24:45.228Z,73.58
2019-02-19T02:26:56.052Z,73.45
2019-02-19T02:29:06.841Z,73.33
2019-02-19T02:31:17.650Z,73.51
2019-02-19T02:33:28.446Z,73.30
2019-02-19T02:35:39.270Z,73.04
2019-02-19T02:37:50.064Z,72.80
2019-02-19T02:40:01.056Z,72.76
2019-02-19T02:42:11.899Z,72.76
2019-02-19T02:44:22.668Z,72.85
2019-02-19T02:46:33.486Z,72.52
2019-02-19T02:48:44.270Z,72.50
2019-02-19T02:50:55.092Z,72.54
2019-02-19T02:53:05.887Z,72.17
2019-02-19T02:55:16.843Z,72.19
2019-02-19T02:57:27.660Z,71.94
2019-02-19T02:59:38.484Z,72.10
2019-02-19T03:01:49.398Z,72.26
2019-02-19T03:04:20.097Z,72.14
2019-02-19T03:08:49.928Z,71.85
2019-02-19T03:11:00.733Z,71.88
2019-02-19T03:13:11.549Z,72.06
2019-02-19T03:15:22.349Z,71.99
2019-02-19T03:17:33.155Z,72.34
2019-02-19T03:19:43.970Z,72.44
2019-02-19T03:21:54.771Z,72.61
2019-02-19T03:24:05.569Z,72.82
2019-02-19T03:26:16.351Z,73.10
2019-02-19T03:28:27.169Z,73.08
2019-02-19T03:30:37.977Z,72.88
2019-02-19T03:32:48.793Z,72.80
2019-02-19T03:34:59.572Z,72.66
2019-02-19T03:37:10.403Z,73.03
2019-02-19T03:39:21.186Z,72.88
2019-02-19T03:41:32.101Z,73.06
2019-02-19T03:43:42.934Z,73.00
2019-02-19T03:45:53.736Z,73.17
2019-02-19T03:48:04.547Z,73.07
2019-02-19T03:50:15.347Z,72.97
2019-02-19T03:52:26.157Z,72.83
2019-02-19T03:54:36.971Z,72.75
2019-02-19T03:56:47.803Z,72.82
2019-02-19T03:58:58.610Z,72.85
2019-02-19T04:01:09.538Z,72.90
2019-02-19T04:03:20.370Z,72.88
2019-02-19T04:05:31.156Z,73.05
2019-02-19T04:07:41.947Z,72.97
2019-02-19T04:09:52.768Z,72.88
2019-02-19T04:12:03.572Z,72.91
2019-02-19T04:14:14.377Z,73.03
2019-02-19T04:16:25.283Z,73.15
2019-02-19T04:18:36.083Z,73.09
2019-02-19T04:20:46.889Z,73.02
2019-02-19T04:22:57.684Z,73.07
2019-02-19T04:25:08.496Z,72.99
2019-02-19T04:28:00.947Z,73.01
2019-02-19T04:30:11.768Z,72.96
2019-02-19T04:32:22.556Z,72.92
2019-02-19T04:34:33.361Z,72.97
2019-02-19T04:36:44.154Z,73.05
2019-02-19T04:38:54.946Z,72.89
2019-02-19T04:41:05.756Z,72.86
2019-02-19T04:43:16.540Z,73.00
2019-02-19T04:45:27.368Z,73.05
2019-02-19T04:47:38.158Z,73.13
2019-02-19T04:49:48.979Z,73.00
2019-02-19T04:51:59.762Z,72.83
2019-02-19T04:54:10.565Z,72.91
2019-02-19T04:56:21.406Z,72.87
2019-02-19T04:58:32.189Z,72.60
2019-02-19T05:00:43.025Z,72.60
2019-02-19T05:02:53.824Z,72.81
2019-02-19T05:05:46.285Z,73.03
2019-02-19T05:07:57.087Z,72.91
2019-02-19T05:10:08.115Z,73.27
2019-02-19T05:12:18.913Z,73.28
2019-02-19T05:14:29.698Z,73.24
2019-02-19T05:16:41.258Z,73.16
2019-02-19T05:21:25.588Z,73.28
2019-02-19T05:23:36.380Z,73.08
2019-02-19T05:25:47.193Z,80.01
2019-02-19T05:27:57.990Z,76.47
2019-02-19T05:30:50.443Z,74.04
2019-02-19T05:33:01.268Z,73.64
2019-02-19T05:35:12.059Z,73.16
2019-02-19T05:37:22.875Z,72.98
2019-02-19T05:39:33.676Z,72.91
2019-02-19T05:41:44.493Z,72.75
2019-02-19T05:43:55.291Z,72.83
2019-02-19T05:46:06.123Z,73.19
2019-02-19T05:48:17.011Z,72.97
2019-02-19T05:50:27.809Z,72.92
2019-02-19T05:52:38.621Z,73.19
2019-02-19T05:54:50.634Z,73.43
2019-02-19T05:57:21.444Z,73.22
2019-02-19T05:59:32.616Z,73.34
2019-02-19T06:01:45.029Z,73.30
2019-02-19T06:03:55.833Z,73.50
2019-02-19T06:06:06.631Z,73.40
2019-02-19T06:08:17.436Z,73.13
2019-02-19T06:10:28.238Z,73.47
2019-02-19T06:12:39.052Z,73.75
2019-02-19T06:14:49.845Z,74.49
2019-02-19T06:17:00.682Z,74.50
2019-02-19T06:19:11.595Z,74.02
2019-02-19T06:21:22.439Z,74.22
2019-02-19T06:23:33.276Z,73.79
2019-02-19T06:25:44.075Z,73.47
2019-02-19T06:27:54.949Z,73.32
2019-02-19T06:30:25.616Z,72.75
2019-02-19T06:32:36.425Z,72.67
2019-02-19T06:34:47.219Z,72.82
2019-02-19T06:36:58.019Z,72.80
2019-02-19T06:39:08.854Z,72.61
2019-02-19T06:41:19.657Z,72.57
2019-02-19T06:43:30.504Z,72.47
2019-02-19T06:45:41.301Z,72.54
2019-02-19T06:47:52.119Z,72.32
2019-02-19T06:50:44.571Z,71.88
2019-02-19T06:52:55.389Z,71.49
2019-02-19T06:55:06.216Z,71.35
2019-02-19T06:57:17.006Z,71.21
2019-02-19T06:59:27.925Z,70.99
2019-02-19T07:06:30.763Z,70.11
2019-02-19T07:08:42.770Z,69.93
2019-02-19T07:10:53.572Z,69.37
2019-02-19T07:13:04.382Z,69.18
2019-02-19T07:15:15.300Z,68.83
2019-02-19T07:17:26.102Z,68.79
2019-02-19T07:19:36.945Z,68.90
2019-02-19T07:21:47.730Z,68.70
2019-02-19T07:24:04.378Z,68.14
2019-02-19T07:26:11.249Z,67.81
2019-02-19T07:28:22.060Z,67.59
2019-02-19T07:30:32.880Z,67.86
2019-02-19T07:32:43.719Z,67.65
2019-02-19T07:34:54.531Z,66.97
2019-02-19T07:37:05.400Z,66.77
2019-02-19T07:39:16.199Z,66.45
2019-02-19T07:41:27.025Z,66.37
2019-02-19T07:43:37.854Z,66.20
2019-02-19T07:45:48.662Z,66.15
2019-02-19T07:47:59.454Z,66.02
2019-02-19T07:50:51.920Z,65.70
2019-02-19T07:53:02.728Z,64.96
2019-02-19T07:55:13.582Z,65.36
2019-02-19T07:57:24.365Z,64.62
2019-02-19T07:59:35.235Z,64.18
2019-02-19T08:01:46.007Z,63.69
2019-02-19T08:03:56.835Z,63.67
2019-02-19T08:06:07.658Z,63.20
2019-02-19T08:08:18.525Z,62.67
2019-02-19T08:10:29.346Z,62.23
2019-02-19T08:12:40.161Z,62.55
2019-02-19T08:14:50.973Z,62.62
2019-02-19T08:17:01.782Z,62.73
2019-02-19T08:19:12.599Z,62.56
2019-02-19T08:21:23.475Z,62.63
2019-02-19T08:23:34.261Z,62.72
2019-02-19T08:25:45.065Z,62.55
2019-02-19T08:27:55.891Z,61.71
2019-02-19T08:30:48.399Z,61.44
2019-02-19T08:32:59.206Z,61.45
2019-02-19T08:35:10.009Z,61.17
2019-02-19T08:37:20.827Z,60.61
2019-02-19T08:39:31.618Z,60.34
2019-02-19T08:41:42.525Z,60.14
2019-02-19T08:43:53.328Z,59.57
2019-02-19T08:46:04.137Z,58.63
2019-02-19T08:48:14.948Z,58.31
2019-02-19T08:50:25.838Z,57.51
2019-02-19T08:52:36.669Z,55.87
2019-02-19T08:54:47.456Z,54.48
2019-02-19T08:56:58.311Z,52.77
2019-02-19T08:59:09.093Z,51.50
2019-02-19T09:01:19.908Z,50.42
2019-02-19T09:03:30.727Z,50.06
2019-02-19T09:05:41.534Z,50.71
2019-02-19T09:07:52.342Z,49.16
2019-02-19T09:10:24.910Z,47.81
2019-02-19T09:12:35.746Z,47.35
2019-02-19T09:14:46.550Z,47.70
2019-02-19T09:16:57.456Z,47.81
2019-02-19T09:19:08.269Z,47.22
2019-02-19T09:21:19.116Z,47.31
2019-02-19T09:23:29.938Z,47.62
2019-02-19T09:25:40.731Z,48.01
2019-02-19T09:27:51.588Z,48.56
2019-02-19T09:30:44.017Z,48.85
2019-02-19T09:32:54.838Z,48.92
2019-02-19T09:35:47.309Z,49.30
2019-02-19T09:37:58.156Z,49.83
2019-02-19T09:40:50.588Z,50.36
2019-02-19T09:43:01.418Z,49.51
2019-02-19T09:45:12.315Z,50.05
2019-02-19T09:47:23.120Z,49.58
2019-02-19T09:49:33.921Z,48.89
2019-02-19T09:54:36.952Z,48.39
2019-02-19T09:56:47.745Z,47.91
2019-02-19T09:58:58.572Z,47.84
2019-02-19T10:01:09.378Z,48.28
2019-02-19T10:05:52.546Z,48.48
2019-02-19T10:08:03.352Z,48.95
2019-02-19T10:10:55.823Z,49.77
2019-02-19T10:13:06.645Z,49.15
2019-02-19T10:15:17.449Z,47.99
2019-02-19T10:17:28.247Z,48.06
2019-02-19T10:19:39.075Z,48.47
2019-02-19T10:21:49.881Z,48.49
2019-02-19T10:24:00.713Z,48.54
2019-02-19T10:26:11.532Z,48.99
2019-02-19T10:28:22.332Z,48.26
2019-02-19T10:30:33.146Z,47.67
2019-02-19T10:32:43.959Z,47.42
2019-02-19T10:34:54.756Z,46.88
2019-02-19T10:37:05.653Z,47.10
2019-02-19T10:39:16.452Z,47.59
2019-02-19T10:41:27.273Z,47.49
2019-02-19T10:43:38.055Z,47.82
2019-02-19T10:45:48.987Z,47.06
2019-02-19T10:47:59.768Z,46.98
2019-02-19T10:50:10.660Z,46.04
2019-02-19T10:52:21.615Z,45.70
2019-02-19T10:54:32.413Z,45.69
2019-02-19T10:56:50.246Z,46.67
2019-02-19T10:59:01.048Z,46.46
2019-02-19T11:01:11.969Z,46.40
2019-02-19T11:03:22.777Z,47.02
2019-02-19T11:05:33.590Z,46.90
2019-02-19T11:07:44.400Z,47.66
2019-02-19T11:09:55.207Z,47.64
2019-02-19T11:12:06.021Z,48.15
2019-02-19T11:14:16.809Z,47.80
2019-02-19T11:16:27.658Z,47.17
2019-02-19T11:18:38.449Z,46.29
2019-02-19T11:20:49.271Z,46.73
2019-02-19T11:23:00.112Z,46.98
2019-02-19T11:25:52.578Z,45.99
2019-02-19T11:28:03.385Z,46.37
2019-02-19T11:30:55.860Z,46.54
2019-02-19T11:33:06.675Z,46.72
2019-02-19T11:35:17.477Z,46.49
2019-02-19T11:37:28.291Z,46.81
2019-02-19T11:39:39.086Z,46.69
2019-02-19T11:41:49.922Z,46.97
2019-02-19T11:44:00.737Z,46.99
2019-02-19T11:46:11.530Z,47.50
2019-02-19T11:48:22.344Z,47.70
2019-02-19T11:50:33.157Z,48.00
2019-02-19T11:52:43.992Z,47.88
2019-02-19T11:54:54.800Z,49.01
2019-02-19T11:57:05.597Z,48.82
2019-02-19T11:59:16.420Z,48.54
2019-02-19T12:01:27.220Z,48.75
2019-02-19T12:03:38.039Z,49.27
2019-02-19T12:05:48.918Z,49.85
2019-02-19T12:07:59.738Z,49.87
2019-02-19T12:10:12.030Z,50.35
2019-02-19T12:12:23.375Z,50.11
2019-02-19T12:14:34.265Z,50.50
2019-02-19T12:16:45.060Z,51.23
2019-02-19T12:18:55.912Z,51.35
2019-02-19T12:21:06.726Z,51.74
2019-02-19T12:23:17.567Z,52.62
2019-02-19T12:25:28.368Z,52.66
2019-02-19T12:27:39.185Z,53.28
2019-02-19T12:29:50.009Z,53.79
2019-02-19T12:32:00.817Z,53.98
2019-02-19T12:34:11.645Z,54.33
2019-02-19T12:36:22.460Z,54.91
2019-02-19T12:38:33.265Z,54.95
2019-02-19T12:40:44.086Z,55.33
2019-02-19T12:42:54.875Z,55.94
2019-02-19T12:45:47.355Z,56.34
2019-02-19T12:47:58.167Z,56.75
2019-02-19T12:50:50.633Z,57.13
2019-02-19T12:53:01.435Z,57.14
2019-02-19T12:55:12.344Z,57.52
2019-02-19T12:57:23.125Z,57.82
2019-02-19T12:59:33.939Z,57.98
2019-02-19T13:01:44.762Z,58.52
2019-02-19T13:03:55.585Z,58.66
2019-02-19T13:06:06.403Z,58.71
2019-02-19T13:08:17.199Z,58.69
2019-02-19T13:10:27.997Z,58.74
2019-02-19T13:12:38.813Z,58.79
2019-02-19T13:14:49.619Z,58.87
2019-02-19T13:17:00.449Z,59.05
2019-02-19T13:19:11.254Z,59.50
2019-02-19T13:21:22.070Z,59.66
2019-02-19T13:23:32.876Z,59.71
2019-02-19T13:25:43.687Z,59.83
2019-02-19T13:27:54.521Z,60.01
2019-02-19T13:30:46.998Z,60.11
2019-02-19T13:32:57.801Z,60.35
2019-02-19T13:35:50.762Z,60.61
2019-02-19T13:38:01.596Z,60.93
2019-02-19T13:40:54.069Z,61.03
2019-02-19T13:43:04.891Z,61.25
2019-02-19T13:45:15.799Z,61.54
2019-02-19T13:47:26.637Z,61.72
2019-02-19T13:49:37.454Z,61.87
2019-02-19T13:51:48.391Z,62.04
2019-02-19T13:54:19.096Z,62.12
2019-02-19T13:56:29.893Z,62.21
2019-02-19T13:58:40.721Z,62.18
2019-02-19T14:00:51.515Z,62.53
2019-02-19T14:03:02.449Z,62.44
2019-02-19T14:05:13.272Z,62.46
2019-02-19T14:07:24.139Z,62.63
2019-02-19T14:09:34.985Z,62.70
2019-02-19T14:11:45.809Z,63.09
2019-02-19T14:18:54.448Z,63.70
2019-02-19T14:23:57.485Z,63.78
2019-02-19T14:26:28.183Z,63.47
2019-02-19T14:28:58.880Z,63.51
2019-02-19T14:31:29.570Z,63.70
2019-02-19T14:34:00.264Z,63.62
2019-02-19T14:36:30.942Z,63.81
2019-02-19T14:39:01.639Z,63.53
2019-02-19T14:41:32.414Z,63.24
2019-02-19T14:44:03.133Z,63.15
2019-02-19T14:46:33.799Z,63.01
2019-02-19T14:49:04.510Z,62.82
2019-02-19T14:54:07.570Z,63.07
2019-02-19T14:56:38.268Z,62.77
2019-02-19T15:01:41.311Z,62.52
2019-02-19T15:04:12.025Z,62.36
2019-02-19T15:06:42.724Z,62.13
2019-02-19T15:09:13.405Z,62.08
2019-02-19T15:11:44.124Z,62.09
2019-02-19T15:14:14.808Z,62.28
2019-02-19T15:16:45.499Z,62.31
2019-02-19T15:19:19.907Z,62.15
2019-02-19T15:24:07.418Z,62.55
2019-02-19T15:28:57.185Z,61.91
2019-02-19T15:31:27.869Z,59.98
2019-02-19T15:33:58.562Z,58.51
2019-02-19T15:36:29.348Z,58.02
2019-02-19T15:39:00.018Z,58.66
2019-02-19T15:41:30.728Z,59.62
2019-02-19T15:44:01.416Z,60.66
2019-02-19T15:49:04.585Z,61.89
2019-02-19T15:51:35.272Z,61.80
2019-02-19T15:56:38.353Z,62.72
2019-02-19T15:59:09.121Z,63.07
2019-02-19T16:06:30.596Z,63.39
2019-02-19T16:11:33.728Z,63.53
2019-02-19T16:14:04.435Z,63.57
2019-02-19T16:19:07.614Z,63.84
2019-02-19T16:21:38.306Z,64.02
2019-02-19T16:24:09.002Z,64.03
2019-02-19T16:33:49.709Z,64.39
2019-02-19T16:38:52.809Z,64.76
2019-02-19T16:41:23.597Z,64.81
2019-02-19T16:43:54.308Z,64.71
2019-02-19T16:48:57.373Z,65.03
2019-02-19T16:51:28.058Z,65.17
2019-02-19T16:53:58.754Z,65.37
2019-02-19T16:56:29.937Z,65.76
2019-02-19T16:59:07.232Z,65.64
2019-02-19T17:01:33.247Z,65.77
2019-02-19T17:04:03.976Z,65.84
2019-02-19T17:09:07.069Z,65.91
2019-02-19T17:13:58.538Z,66.10
2019-02-19T17:16:28.912Z,66.20
2019-02-19T17:18:59.604Z,66.50
2019-02-19T17:21:30.327Z,66.57
2019-02-19T17:31:10.662Z,66.95
2019-02-19T17:33:41.359Z,67.01
2019-02-19T17:36:12.063Z,67.11
2019-02-19T17:38:42.750Z,67.24
2019-02-19T17:45:51.106Z,67.73
2019-02-19T17:48:21.793Z,67.76
2019-02-19T17:53:14.924Z,67.94
2019-02-19T18:02:55.394Z,68.45
2019-02-19T18:05:26.174Z,68.55
2019-02-19T18:07:56.878Z,68.63
2019-02-19T18:10:27.676Z,68.69
2019-02-19T18:15:17.398Z,68.95
2019-02-19T18:17:48.225Z,69.06
2019-02-19T18:19:59.041Z,69.14
2019-02-19T18:22:09.896Z,69.24
2019-02-19T18:24:21.027Z,69.27
2019-02-19T18:26:53.563Z,69.24
2019-02-19T18:29:04.386Z,69.19
2019-02-19T18:31:15.185Z,69.18
2019-02-19T18:33:26.021Z,69.36
2019-02-19T18:35:36.919Z,69.61
2019-02-19T18:37:47.757Z,69.84
2019-02-19T18:39:58.584Z,70.04
2019-02-19T18:42:09.414Z,70.32
2019-02-19T18:44:20.245Z,70.41
2019-02-19T18:46:31.048Z,70.47
2019-02-19T18:48:41.870Z,70.58
2019-02-19T18:50:58.420Z,70.56
2019-02-19T18:53:05.569Z,70.72
2019-02-19T18:55:16.459Z,70.79
2019-02-19T18:57:27.264Z,70.93
2019-02-19T18:59:38.083Z,71.02
2019-02-19T19:01:48.889Z,71.22
2019-02-19T19:03:59.785Z,71.28
2019-02-19T19:06:10.575Z,71.66
2019-02-19T19:08:21.412Z,71.94
2019-02-19T19:10:32.379Z,72.17
2019-02-19T19:12:43.307Z,72.52
2019-02-19T19:14:54.176Z,72.62
2019-02-19T19:17:05.082Z,72.96
2019-02-19T19:19:15.930Z,72.96
2019-02-19T19:21:26.827Z,73.09
2019-02-19T19:23:37.659Z,73.22
2019-02-19T19:25:48.647Z,73.48
2019-02-19T19:27:59.437Z,73.45
2019-02-19T19:30:30.178Z,73.58
2019-02-19T19:32:40.982Z,74.13
2019-02-19T19:34:51.805Z,74.41
2019-02-19T19:37:02.650Z,74.44
2019-02-19T19:39:13.475Z,74.66
2019-02-19T19:41:24.311Z,74.63
2019-02-19T19:43:37.190Z,74.67
2019-02-19T19:45:47.887Z,74.72
2019-02-19T19:47:58.706Z,75.00
2019-02-19T19:50:31.328Z,75.33
2019-02-19T19:52:42.136Z,75.30
2019-02-19T19:54:52.932Z,75.06
2019-02-19T19:57:04.498Z,75.01
2019-02-19T19:59:16.493Z,75.08
2019-02-19T20:01:27.335Z,75.25
2019-02-19T20:03:38.226Z,75.40
2019-02-19T20:05:49.091Z,75.58
2019-02-19T20:08:00.028Z,75.51
2019-02-19T20:10:52.487Z,75.89
2019-02-19T20:13:03.410Z,76.12
2019-02-19T20:15:14.284Z,75.90
2019-02-19T20:17:25.107Z,75.91
2019-02-19T20:19:35.970Z,76.04
2019-02-19T20:21:46.890Z,76.01
2019-02-19T20:23:57.817Z,75.62
2019-02-19T20:26:08.649Z,75.69
2019-02-19T20:28:19.489Z,75.58
2019-02-19T20:30:30.301Z,75.60
2019-02-19T20:32:41.152Z,75.63
2019-02-19T20:34:52.052Z,75.82
2019-02-19T20:37:03.023Z,75.77
2019-02-19T20:39:13.833Z,75.95
2019-02-19T20:41:24.659Z,75.96
2019-02-19T20:43:35.521Z,76.04
2019-02-19T20:45:46.340Z,76.13
2019-02-19T20:47:57.179Z,76.46
2019-02-19T20:50:49.630Z,76.63
2019-02-19T20:53:00.465Z,76.66
2019-02-19T20:55:11.384Z,76.48
2019-02-19T20:57:22.218Z,76.51
2019-02-19T20:59:33.063Z,76.56
2019-02-19T21:01:43.896Z,76.38
2019-02-19T21:03:54.848Z,76.39
2019-02-19T21:06:05.676Z,76.54
2019-02-19T21:08:16.563Z,76.44
2019-02-19T21:10:27.377Z,76.37
2019-02-19T21:12:38.203Z,76.54
2019-02-19T21:14:49.039Z,76.36
2019-02-19T21:16:59.918Z,76.32
2019-02-19T21:19:10.759Z,76.27
2019-02-19T21:21:21.628Z,76.24
2019-02-19T21:23:32.459Z,76.48
2019-02-19T21:25:43.282Z,76.53
2019-02-19T21:27:54.108Z,76.70
2019-02-19T21:30:24.825Z,76.66
2019-02-19T21:32:35.667Z,77.41
2019-02-19T21:34:46.500Z,77.54
2019-02-19T21:36:57.349Z,77.75
2019-02-19T21:39:08.255Z,77.78
2019-02-19T21:41:19.091Z,77.63
2019-02-19T21:43:30.013Z,77.63
2019-02-19T21:45:40.885Z,77.53
2019-02-19T21:47:51.719Z,77.51
2019-02-19T21:50:44.207Z,77.44
2019-02-19T21:52:55.008Z,77.57
2019-02-19T21:55:47.515Z,77.72
2019-02-19T21:57:59.693Z,77.88
2019-02-19T22:00:52.659Z,77.64
2019-02-19T22:03:03.508Z,77.64
2019-02-19T22:05:14.351Z,77.33
2019-02-19T22:07:25.185Z,77.41
2019-02-19T22:09:35.968Z,77.41
2019-02-19T22:11:46.805Z,77.62
2019-02-19T22:13:57.596Z,77.64
2019-02-19T22:16:08.432Z,77.63
2019-02-19T22:18:19.219Z,77.47
2019-02-19T22:20:49.958Z,77.35
2019-02-19T22:23:00.764Z,77.43
2019-02-19T22:25:11.548Z,77.49
2019-02-19T22:27:22.370Z,77.72
2019-02-19T22:29:33.193Z,77.65
2019-02-19T22:31:44.050Z,77.96
2019-02-19T22:33:54.940Z,77.83
2019-02-19T22:36:05.822Z,78.00
2019-02-19T22:38:16.655Z,78.35
2019-02-19T22:40:27.486Z,78.15
2019-02-19T22:42:38.298Z,77.88
2019-02-19T22:44:49.104Z,77.97
2019-02-19T22:47:00.045Z,78.15
2019-02-19T22:49:10.850Z,77.96
2019-02-19T22:51:21.674Z,77.70
2019-02-19T22:53:52.358Z,77.44
2019-02-19T22:58:35.563Z,77.13
2019-02-19T23:03:38.705Z,77.68
2019-02-19T23:05:49.619Z,77.52
2019-02-19T23:08:00.448Z,77.79
2019-02-19T23:10:11.244Z,78.09
2019-02-19T23:12:22.037Z,78.05
2019-02-19T23:14:32.960Z,78.06
2019-02-19T23:16:43.753Z,78.36
2019-02-19T23:18:54.595Z,78.71
2019-02-19T23:21:05.439Z,78.65
2019-02-19T23:23:16.240Z,78.72
2019-02-19T23:25:27.106Z,78.67
2019-02-19T23:27:37.915Z,78.26
2019-02-19T23:29:48.731Z,77.90
2019-02-19T23:31:59.516Z,77.79
2019-02-19T23:34:10.336Z,77.61
2019-02-19T23:36:41.017Z,77.56
2019-02-19T23:38:51.846Z,77.51
2019-02-19T23:41:02.752Z,77.82
2019-02-19T23:43:13.536Z,77.89
2019-02-19T23:45:24.384Z,77.80
2019-02-19T23:47:35.189Z,77.90
2019-02-19T23:49:46.005Z,77.89
2019-02-19T23:51:56.805Z,78.20
2019-02-19T23:54:07.611Z,78.06
2019-02-19T23:56:18.412Z,77.98
2019-02-19T23:58:29.219Z,77.76
